sensor_id;sensor_type;location;lat;lon;timestamp;pressure;altitude;pressure_sealevel;temperature
78961;BMP280;68362;45.970;12.646;2023-06-04T00:00:55;101273.16;;;16.35
78961;BMP280;68362;45.970;12.646;2023-06-04T00:02:19;101275.66;;;16.25
78961;BMP280;68362;45.970;12.646;2023-06-04T00:03:21;101272.06;;;16.14
78961;BMP280;68362;45.970;12.646;2023-06-04T00:04:25;101270.16;;;16.10
78961;BMP280;68362;45.970;12.646;2023-06-04T00:05:27;101266.75;;;16.14
78961;BMP280;68362;45.970;12.646;2023-06-04T00:06:29;101261.75;;;16.34
78961;BMP280;68362;45.970;12.646;2023-06-04T00:07:31;101270.16;;;16.48
78961;BMP280;68362;45.970;12.646;2023-06-04T00:08:33;101266.47;;;16.32
78961;BMP280;68362;45.970;12.646;2023-06-04T00:09:36;101269.28;;;16.43
78961;BMP280;68362;45.970;12.646;2023-06-04T00:10:38;101265.78;;;16.20
78961;BMP280;68362;45.970;12.646;2023-06-04T00:11:41;101264.41;;;16.18
78961;BMP280;68362;45.970;12.646;2023-06-04T00:12:43;101268.38;;;16.15
78961;BMP280;68362;45.970;12.646;2023-06-04T00:13:46;101264.81;;;16.26
78961;BMP280;68362;45.970;12.646;2023-06-04T00:14:48;101262.59;;;16.18
78961;BMP280;68362;45.970;12.646;2023-06-04T00:15:50;101258.81;;;16.53
78961;BMP280;68362;45.970;12.646;2023-06-04T00:16:52;101260.53;;;16.64
78961;BMP280;68362;45.970;12.646;2023-06-04T00:17:54;101255.88;;;16.71
78961;BMP280;68362;45.970;12.646;2023-06-04T00:18:58;101256.66;;;16.94
78961;BMP280;68362;45.970;12.646;2023-06-04T00:20:01;101252.97;;;17.00
78961;BMP280;68362;45.970;12.646;2023-06-04T00:21:03;101254.47;;;16.90
78961;BMP280;68362;45.970;12.646;2023-06-04T00:22:06;101254.81;;;16.99
78961;BMP280;68362;45.970;12.646;2023-06-04T00:23:08;101250.09;;;17.01
78961;BMP280;68362;45.970;12.646;2023-06-04T00:24:10;101257.25;;;17.01
78961;BMP280;68362;45.970;12.646;2023-06-04T00:25:14;101249.88;;;16.81
78961;BMP280;68362;45.970;12.646;2023-06-04T00:26:17;101250.63;;;16.54
78961;BMP280;68362;45.970;12.646;2023-06-04T00:27:19;101253.38;;;16.43
78961;BMP280;68362;45.970;12.646;2023-06-04T00:28:21;101251.31;;;16.45
78961;BMP280;68362;45.970;12.646;2023-06-04T00:29:23;101255.47;;;16.41
78961;BMP280;68362;45.970;12.646;2023-06-04T00:30:25;101252.25;;;16.82
78961;BMP280;68362;45.970;12.646;2023-06-04T00:31:27;101250.97;;;16.85
78961;BMP280;68362;45.970;12.646;2023-06-04T00:32:30;101249.31;;;17.01
78961;BMP280;68362;45.970;12.646;2023-06-04T00:33:32;101249.69;;;17.14
78961;BMP280;68362;45.970;12.646;2023-06-04T00:34:34;101247.81;;;17.10
78961;BMP280;68362;45.970;12.646;2023-06-04T00:35:36;101245.84;;;17.27
78961;BMP280;68362;45.970;12.646;2023-06-04T00:36:39;101244.72;;;17.23
78961;BMP280;68362;45.970;12.646;2023-06-04T00:37:42;101248.00;;;17.30
78961;BMP280;68362;45.970;12.646;2023-06-04T00:38:44;101251.22;;;17.32
78961;BMP280;68362;45.970;12.646;2023-06-04T00:39:46;101245.94;;;16.83
78961;BMP280;68362;45.970;12.646;2023-06-04T00:40:48;101244.88;;;16.84
78961;BMP280;68362;45.970;12.646;2023-06-04T00:41:50;101250.19;;;16.62
78961;BMP280;68362;45.970;12.646;2023-06-04T00:42:52;101243.59;;;16.65
78961;BMP280;68362;45.970;12.646;2023-06-04T00:43:54;101240.25;;;16.75
78961;BMP280;68362;45.970;12.646;2023-06-04T00:44:59;101243.06;;;16.63
78961;BMP280;68362;45.970;12.646;2023-06-04T00:46:02;101241.78;;;16.92
78961;BMP280;68362;45.970;12.646;2023-06-04T00:47:08;101244.63;;;16.64
78961;BMP280;68362;45.970;12.646;2023-06-04T00:48:10;101239.69;;;16.73
78961;BMP280;68362;45.970;12.646;2023-06-04T00:49:12;101243.06;;;16.63
78961;BMP280;68362;45.970;12.646;2023-06-04T00:50:14;101234.28;;;16.41
78961;BMP280;68362;45.970;12.646;2023-06-04T00:51:16;101236.00;;;16.52
78961;BMP280;68362;45.970;12.646;2023-06-04T00:52:18;101239.06;;;16.44
78961;BMP280;68362;45.970;12.646;2023-06-04T00:53:23;101244.25;;;16.33
78961;BMP280;68362;45.970;12.646;2023-06-04T00:54:25;101231.88;;;16.39
78961;BMP280;68362;45.970;12.646;2023-06-04T00:55:28;101237.22;;;16.22
78961;BMP280;68362;45.970;12.646;2023-06-04T00:56:30;101228.06;;;16.30
78961;BMP280;68362;45.970;12.646;2023-06-04T00:57:32;101227.88;;;16.37
78961;BMP280;68362;45.970;12.646;2023-06-04T00:58:38;101228.53;;;16.71
78961;BMP280;68362;45.970;12.646;2023-06-04T00:59:45;101229.44;;;16.81
78961;BMP280;68362;45.970;12.646;2023-06-04T01:00:47;101230.09;;;16.88
78961;BMP280;68362;45.970;12.646;2023-06-04T01:02:57;101227.31;;;17.05
78961;BMP280;68362;45.970;12.646;2023-06-04T01:04:02;101229.06;;;17.22
78961;BMP280;68362;45.970;12.646;2023-06-04T01:05:12;101229.94;;;17.27
78961;BMP280;68362;45.970;12.646;2023-06-04T01:06:31;101223.13;;;17.41
78961;BMP280;68362;45.970;12.646;2023-06-04T01:07:35;101231.34;;;17.40
78961;BMP280;68362;45.970;12.646;2023-06-04T01:08:39;101230.50;;;17.34
78961;BMP280;68362;45.970;12.646;2023-06-04T01:09:44;101228.69;;;17.40
78961;BMP280;68362;45.970;12.646;2023-06-04T01:10:54;101231.97;;;17.47
78961;BMP280;68362;45.970;12.646;2023-06-04T01:11:57;101233.72;;;17.36
78961;BMP280;68362;45.970;12.646;2023-06-04T01:13:00;101230.31;;;17.14
78961;BMP280;68362;45.970;12.646;2023-06-04T01:14:03;101228.28;;;17.21
78961;BMP280;68362;45.970;12.646;2023-06-04T01:15:06;101228.97;;;17.38
78961;BMP280;68362;45.970;12.646;2023-06-04T01:16:08;101229.63;;;17.56
78961;BMP280;68362;45.970;12.646;2023-06-04T01:17:37;101225.41;;;17.60
78961;BMP280;68362;45.970;12.646;2023-06-04T01:18:41;101230.47;;;17.61
78961;BMP280;68362;45.970;12.646;2023-06-04T01:20:03;101226.22;;;17.60
78961;BMP280;68362;45.970;12.646;2023-06-04T01:21:08;101227.00;;;17.61
78961;BMP280;68362;45.970;12.646;2023-06-04T01:22:17;101223.88;;;17.69
78961;BMP280;68362;45.970;12.646;2023-06-04T01:23:32;101219.66;;;17.73
78961;BMP280;68362;45.970;12.646;2023-06-04T01:24:37;101219.38;;;17.69
78961;BMP280;68362;45.970;12.646;2023-06-04T01:25:42;101227.66;;;17.78
78961;BMP280;68362;45.970;12.646;2023-06-04T01:26:46;101224.81;;;17.90
78961;BMP280;68362;45.970;12.646;2023-06-04T01:27:50;101225.06;;;17.88
78961;BMP280;68362;45.970;12.646;2023-06-04T01:28:58;101217.38;;;17.87
78961;BMP280;68362;45.970;12.646;2023-06-04T01:30:01;101221.59;;;17.88
78961;BMP280;68362;45.970;12.646;2023-06-04T01:31:04;101223.47;;;17.50
78961;BMP280;68362;45.970;12.646;2023-06-04T01:32:10;101222.47;;;17.24
78961;BMP280;68362;45.970;12.646;2023-06-04T01:33:13;101219.47;;;17.15
78961;BMP280;68362;45.970;12.646;2023-06-04T01:34:15;101222.91;;;17.16
78961;BMP280;68362;45.970;12.646;2023-06-04T01:35:18;101226.75;;;17.30
78961;BMP280;68362;45.970;12.646;2023-06-04T01:36:20;101232.59;;;17.27
78961;BMP280;68362;45.970;12.646;2023-06-04T01:37:22;101221.63;;;16.91
78961;BMP280;68362;45.970;12.646;2023-06-04T01:38:24;101222.00;;;17.05
78961;BMP280;68362;45.970;12.646;2023-06-04T01:39:26;101222.97;;;17.21
78961;BMP280;68362;45.970;12.646;2023-06-04T01:40:28;101216.31;;;17.18
78961;BMP280;68362;45.970;12.646;2023-06-04T01:41:31;101226.28;;;17.06
78961;BMP280;68362;45.970;12.646;2023-06-04T01:42:33;101223.72;;;16.89
78961;BMP280;68362;45.970;12.646;2023-06-04T01:43:35;101224.06;;;16.71
78961;BMP280;68362;45.970;12.646;2023-06-04T01:44:37;101227.38;;;16.61
78961;BMP280;68362;45.970;12.646;2023-06-04T01:45:39;101221.63;;;16.70
78961;BMP280;68362;45.970;12.646;2023-06-04T01:46:41;101224.41;;;16.58
78961;BMP280;68362;45.970;12.646;2023-06-04T01:47:44;101222.19;;;16.50
78961;BMP280;68362;45.970;12.646;2023-06-04T01:48:46;101226.63;;;16.66
78961;BMP280;68362;45.970;12.646;2023-06-04T01:49:50;101222.88;;;16.40
78961;BMP280;68362;45.970;12.646;2023-06-04T01:50:52;101234.00;;;16.64
78961;BMP280;68362;45.970;12.646;2023-06-04T01:51:55;101223.22;;;16.92
78961;BMP280;68362;45.970;12.646;2023-06-04T01:52:58;101219.13;;;16.80
78961;BMP280;68362;45.970;12.646;2023-06-04T01:54:01;101225.69;;;16.77
78961;BMP280;68362;45.970;12.646;2023-06-04T01:55:08;101230.09;;;16.88
78961;BMP280;68362;45.970;12.646;2023-06-04T01:56:11;101225.81;;;16.87
78961;BMP280;68362;45.970;12.646;2023-06-04T01:57:13;101230.53;;;16.58
78961;BMP280;68362;45.970;12.646;2023-06-04T01:58:15;101233.19;;;16.80
78961;BMP280;68362;45.970;12.646;2023-06-04T01:59:24;101232.25;;;17.18
78961;BMP280;68362;45.970;12.646;2023-06-04T02:00:27;101225.97;;;17.30
78961;BMP280;68362;45.970;12.646;2023-06-04T02:01:29;101230.13;;;17.20
78961;BMP280;68362;45.970;12.646;2023-06-04T02:02:31;101235.88;;;17.12
78961;BMP280;68362;45.970;12.646;2023-06-04T02:03:33;101228.13;;;17.38
78961;BMP280;68362;45.970;12.646;2023-06-04T02:04:38;101238.41;;;17.29
78961;BMP280;68362;45.970;12.646;2023-06-04T02:05:43;101237.47;;;17.40
78961;BMP280;68362;45.970;12.646;2023-06-04T02:06:47;101232.25;;;17.51
78961;BMP280;68362;45.970;12.646;2023-06-04T02:07:50;101227.84;;;17.66
78961;BMP280;68362;45.970;12.646;2023-06-04T02:08:53;101228.31;;;17.58
78961;BMP280;68362;45.970;12.646;2023-06-04T02:09:56;101231.78;;;17.59
78961;BMP280;68362;45.970;12.646;2023-06-04T02:10:57;101230.78;;;17.70
78961;BMP280;68362;45.970;12.646;2023-06-04T02:11:59;101226.63;;;17.79
78961;BMP280;68362;45.970;12.646;2023-06-04T02:13:02;101236.59;;;17.62
78961;BMP280;68362;45.970;12.646;2023-06-04T02:14:05;101236.16;;;17.80
78961;BMP280;68362;45.970;12.646;2023-06-04T02:15:10;101234.38;;;17.91
78961;BMP280;68362;45.970;12.646;2023-06-04T02:16:12;101227.16;;;17.81
78961;BMP280;68362;45.970;12.646;2023-06-04T02:17:15;101234.03;;;17.77
78961;BMP280;68362;45.970;12.646;2023-06-04T02:18:19;101230.81;;;17.75
78961;BMP280;68362;45.970;12.646;2023-06-04T02:19:24;101227.38;;;17.74
78961;BMP280;68362;45.970;12.646;2023-06-04T02:20:28;101233.13;;;17.61
78961;BMP280;68362;45.970;12.646;2023-06-04T02:21:30;101229.66;;;17.61
78961;BMP280;68362;45.970;12.646;2023-06-04T02:22:32;101233.94;;;17.67
78961;BMP280;68362;45.970;12.646;2023-06-04T02:23:34;101229.13;;;17.64
78961;BMP280;68362;45.970;12.646;2023-06-04T02:24:36;101232.13;;;17.35
78961;BMP280;68362;45.970;12.646;2023-06-04T02:25:41;101232.91;;;17.68
78961;BMP280;68362;45.970;12.646;2023-06-04T02:26:43;101227.59;;;17.68
78961;BMP280;68362;45.970;12.646;2023-06-04T02:27:45;101228.25;;;17.85
78961;BMP280;68362;45.970;12.646;2023-06-04T02:28:47;101223.69;;;17.81
78961;BMP280;68362;45.970;12.646;2023-06-04T02:29:49;101227.16;;;17.81
78961;BMP280;68362;45.970;12.646;2023-06-04T02:30:51;101221.84;;;17.81
78961;BMP280;68362;45.970;12.646;2023-06-04T02:31:53;101221.13;;;17.54
78961;BMP280;68362;45.970;12.646;2023-06-04T02:32:56;101224.31;;;17.56
78961;BMP280;68362;45.970;12.646;2023-06-04T02:33:59;101224.75;;;17.80
78961;BMP280;68362;45.970;12.646;2023-06-04T02:35:02;101219.25;;;17.96
78961;BMP280;68362;45.970;12.646;2023-06-04T02:36:05;101222.94;;;17.85
78961;BMP280;68362;45.970;12.646;2023-06-04T02:37:07;101229.31;;;17.89
78961;BMP280;68362;45.970;12.646;2023-06-04T02:38:09;101222.53;;;18.09
78961;BMP280;68362;45.970;12.646;2023-06-04T02:39:12;101226.00;;;18.14
78961;BMP280;68362;45.970;12.646;2023-06-04T02:40:14;101223.59;;;18.13
78961;BMP280;68362;45.970;12.646;2023-06-04T02:41:16;101224.94;;;18.10
78961;BMP280;68362;45.970;12.646;2023-06-04T02:42:18;101226.31;;;18.23
78961;BMP280;68362;45.970;12.646;2023-06-04T02:43:20;101233.75;;;18.16
78961;BMP280;68362;45.970;12.646;2023-06-04T02:44:22;101229.41;;;18.04
78961;BMP280;68362;45.970;12.646;2023-06-04T02:45:28;101230.84;;;17.80
78961;BMP280;68362;45.970;12.646;2023-06-04T02:46:30;101221.94;;;18.01
78961;BMP280;68362;45.970;12.646;2023-06-04T02:47:32;101225.97;;;18.04
78961;BMP280;68362;45.970;12.646;2023-06-04T02:48:35;101232.16;;;18.20
78961;BMP280;68362;45.970;12.646;2023-06-04T02:49:37;101232.16;;;18.20
78961;BMP280;68362;45.970;12.646;2023-06-04T02:50:39;101234.34;;;18.33
78961;BMP280;68362;45.970;12.646;2023-06-04T02:51:44;101232.75;;;18.32
78961;BMP280;68362;45.970;12.646;2023-06-04T02:52:46;101235.72;;;18.41
78961;BMP280;68362;45.970;12.646;2023-06-04T02:53:48;101228.00;;;18.49
78961;BMP280;68362;45.970;12.646;2023-06-04T02:54:51;101223.22;;;18.46
78961;BMP280;68362;45.970;12.646;2023-06-04T02:55:53;101231.22;;;18.51
78961;BMP280;68362;45.970;12.646;2023-06-04T02:56:55;101233.63;;;18.58
78961;BMP280;68362;45.970;12.646;2023-06-04T02:57:57;101234.72;;;18.57
78961;BMP280;68362;45.970;12.646;2023-06-04T02:59:00;101233.41;;;18.64
78961;BMP280;68362;45.970;12.646;2023-06-04T03:00:03;101237.63;;;18.65
78961;BMP280;68362;45.970;12.646;2023-06-04T03:01:19;101242.38;;;18.48
78961;BMP280;68362;45.970;12.646;2023-06-04T03:02:22;101251.69;;;18.41
78961;BMP280;68362;45.970;12.646;2023-06-04T03:03:25;101258.81;;;18.40
78961;BMP280;68362;45.970;12.646;2023-06-04T03:04:28;101249.22;;;18.29
78961;BMP280;68362;45.970;12.646;2023-06-04T03:05:35;101248.34;;;18.18
78961;BMP280;68362;45.970;12.646;2023-06-04T03:06:38;101248.69;;;18.27
78961;BMP280;68362;45.970;12.646;2023-06-04T03:07:42;101247.13;;;18.36
78961;BMP280;68362;45.970;12.646;2023-06-04T03:08:45;101248.97;;;18.35
78961;BMP280;68362;45.970;12.646;2023-06-04T03:09:49;101253.78;;;18.39
78961;BMP280;68362;45.970;12.646;2023-06-04T03:10:51;101250.28;;;18.33
78961;BMP280;68362;45.970;12.646;2023-06-04T03:11:53;101254.81;;;18.32
78961;BMP280;68362;45.970;12.646;2023-06-04T03:12:55;101254.81;;;18.32
78961;BMP280;68362;45.970;12.646;2023-06-04T03:13:57;101256.50;;;18.01
78961;BMP280;68362;45.970;12.646;2023-06-04T03:14:59;101253.88;;;17.69
78961;BMP280;68362;45.970;12.646;2023-06-04T03:16:02;101254.53;;;17.49
78961;BMP280;68362;45.970;12.646;2023-06-04T03:17:05;101258.69;;;17.40
78961;BMP280;68362;45.970;12.646;2023-06-04T03:18:12;101251.03;;;17.17
78961;BMP280;68362;45.970;12.646;2023-06-04T03:19:14;101255.34;;;16.96
78961;BMP280;68362;45.970;12.646;2023-06-04T03:20:16;101249.09;;;16.80
78961;BMP280;68362;45.970;12.646;2023-06-04T03:21:18;101247.78;;;16.83
78961;BMP280;68362;45.970;12.646;2023-06-04T03:22:21;101246.94;;;16.82
78961;BMP280;68362;45.970;12.646;2023-06-04T03:23:23;101245.69;;;16.63
78961;BMP280;68362;45.970;12.646;2023-06-04T03:24:26;101245.75;;;16.68
78961;BMP280;68362;45.970;12.646;2023-06-04T03:25:28;101254.47;;;16.47
78961;BMP280;68362;45.970;12.646;2023-06-04T03:26:30;101248.19;;;16.53
78961;BMP280;68362;45.970;12.646;2023-06-04T03:27:32;101255.72;;;16.61
78961;BMP280;68362;45.970;12.646;2023-06-04T03:28:35;101255.19;;;16.81
78961;BMP280;68362;45.970;12.646;2023-06-04T03:29:37;101258.63;;;17.08
78961;BMP280;68362;45.970;12.646;2023-06-04T03:30:40;101260.13;;;17.21
78961;BMP280;68362;45.970;12.646;2023-06-04T03:31:44;101262.94;;;17.36
78961;BMP280;68362;45.970;12.646;2023-06-04T03:32:47;101257.50;;;17.26
78961;BMP280;68362;45.970;12.646;2023-06-04T03:33:49;101258.19;;;17.43
78961;BMP280;68362;45.970;12.646;2023-06-04T03:34:51;101267.84;;;17.55
78961;BMP280;68362;45.970;12.646;2023-06-04T03:35:53;101264.72;;;17.63
78961;BMP280;68362;45.970;12.646;2023-06-04T03:36:56;101266.13;;;17.38
78961;BMP280;68362;45.970;12.646;2023-06-04T03:37:58;101270.72;;;17.48
78961;BMP280;68362;45.970;12.646;2023-06-04T03:39:00;101272.22;;;17.71
78961;BMP280;68362;45.970;12.646;2023-06-04T03:40:02;101273.47;;;17.63
78961;BMP280;68362;45.970;12.646;2023-06-04T03:41:08;101270.19;;;17.51
78961;BMP280;68362;45.970;12.646;2023-06-04T03:42:10;101268.28;;;17.73
78961;BMP280;68362;45.970;12.646;2023-06-04T03:43:12;101265.50;;;17.58
78961;BMP280;68362;45.970;12.646;2023-06-04T03:44:15;101274.91;;;17.76
78961;BMP280;68362;45.970;12.646;2023-06-04T03:45:18;101271.78;;;17.84
78961;BMP280;68362;45.970;12.646;2023-06-04T03:46:20;101277.19;;;17.94
78961;BMP280;68362;45.970;12.646;2023-06-04T03:47:22;101265.47;;;17.90
78961;BMP280;68362;45.970;12.646;2023-06-04T03:48:24;101263.31;;;17.82
78961;BMP280;68362;45.970;12.646;2023-06-04T03:49:26;101272.63;;;17.90
78961;BMP280;68362;45.970;12.646;2023-06-04T03:50:28;101262.88;;;18.00
78961;BMP280;68362;45.970;12.646;2023-06-04T03:51:30;101277.78;;;17.69
78961;BMP280;68362;45.970;12.646;2023-06-04T03:52:35;101268.28;;;17.46
78961;BMP280;68362;45.970;12.646;2023-06-04T03:53:37;101275.22;;;17.80
78961;BMP280;68362;45.970;12.646;2023-06-04T03:54:41;101273.88;;;17.77
78961;BMP280;68362;45.970;12.646;2023-06-04T03:55:43;101273.34;;;17.80
78961;BMP280;68362;45.970;12.646;2023-06-04T03:56:45;101278.34;;;17.39
78961;BMP280;68362;45.970;12.646;2023-06-04T03:57:48;101277.56;;;17.76
78961;BMP280;68362;45.970;12.646;2023-06-04T03:58:50;101277.31;;;17.77
78961;BMP280;68362;45.970;12.646;2023-06-04T03:59:52;101271.75;;;17.74
78961;BMP280;68362;45.970;12.646;2023-06-04T04:00:54;101272.25;;;17.76
78961;BMP280;68362;45.970;12.646;2023-06-04T04:01:59;101280.03;;;17.83
78961;BMP280;68362;45.970;12.646;2023-06-04T04:03:01;101272.41;;;17.91
78961;BMP280;68362;45.970;12.646;2023-06-04T04:04:04;101274.56;;;18.04
78961;BMP280;68362;45.970;12.646;2023-06-04T04:05:07;101263.44;;;18.07
78961;BMP280;68362;45.970;12.646;2023-06-04T04:06:10;101274.34;;;18.11
78961;BMP280;68362;45.970;12.646;2023-06-04T04:07:14;101274.13;;;18.18
78961;BMP280;68362;45.970;12.646;2023-06-04T04:08:17;101273.03;;;18.14
78961;BMP280;68362;45.970;12.646;2023-06-04T04:09:19;101277.34;;;18.20
78961;BMP280;68362;45.970;12.646;2023-06-04T04:10:22;101277.91;;;18.27
78961;BMP280;68362;45.970;12.646;2023-06-04T04:11:24;101278.94;;;18.21
78961;BMP280;68362;45.970;12.646;2023-06-04T04:12:27;101274.94;;;18.18
78961;BMP280;68362;45.970;12.646;2023-06-04T04:13:29;101274.03;;;18.02
78961;BMP280;68362;45.970;12.646;2023-06-04T04:14:31;101277.09;;;17.79
78961;BMP280;68362;45.970;12.646;2023-06-04T04:15:33;101268.94;;;17.96
78961;BMP280;68362;45.970;12.646;2023-06-04T04:16:35;101272.88;;;17.83
78961;BMP280;68362;45.970;12.646;2023-06-04T04:17:37;101274.72;;;17.51
78961;BMP280;68362;45.970;12.646;2023-06-04T04:18:42;101284.88;;;17.59
78961;BMP280;68362;45.970;12.646;2023-06-04T04:19:47;101271.81;;;17.25
78961;BMP280;68362;45.970;12.646;2023-06-04T04:20:49;101275.63;;;17.34
78961;BMP280;68362;45.970;12.646;2023-06-04T04:21:51;101273.59;;;17.46
78961;BMP280;68362;45.970;12.646;2023-06-04T04:22:53;101278.44;;;17.49
78961;BMP280;68362;45.970;12.646;2023-06-04T04:23:55;101274.72;;;17.51
78961;BMP280;68362;45.970;12.646;2023-06-04T04:24:57;101272.59;;;17.53
78961;BMP280;68362;45.970;12.646;2023-06-04T04:25:59;101274.94;;;17.44
78961;BMP280;68362;45.970;12.646;2023-06-04T04:27:04;101272.19;;;17.07
78961;BMP280;68362;45.970;12.646;2023-06-04T04:28:06;101274.78;;;17.02
78961;BMP280;68362;45.970;12.646;2023-06-04T04:29:09;101273.47;;;16.82
78961;BMP280;68362;45.970;12.646;2023-06-04T04:30:11;101278.19;;;16.75
78961;BMP280;68362;45.970;12.646;2023-06-04T04:31:15;101282.13;;;16.95
78961;BMP280;68362;45.970;12.646;2023-06-04T04:32:17;101280.31;;;16.78
78961;BMP280;68362;45.970;12.646;2023-06-04T04:33:19;101282.22;;;17.05
78961;BMP280;68362;45.970;12.646;2023-06-04T04:34:22;101279.88;;;17.08
78961;BMP280;68362;45.970;12.646;2023-06-04T04:35:25;101293.78;;;17.15
78961;BMP280;68362;45.970;12.646;2023-06-04T04:36:27;101286.75;;;17.31
78961;BMP280;68362;45.970;12.646;2023-06-04T04:37:29;101287.25;;;17.28
78961;BMP280;68362;45.970;12.646;2023-06-04T04:38:32;101284.53;;;17.23
78961;BMP280;68362;45.970;12.646;2023-06-04T04:39:35;101281.88;;;17.23
78961;BMP280;68362;45.970;12.646;2023-06-04T04:40:37;101279.72;;;17.20
78961;BMP280;68362;45.970;12.646;2023-06-04T04:41:40;101284.53;;;17.23
78961;BMP280;68362;45.970;12.646;2023-06-04T04:42:41;101283.28;;;16.82
78961;BMP280;68362;45.970;12.646;2023-06-04T04:43:44;101281.72;;;16.81
78961;BMP280;68362;45.970;12.646;2023-06-04T04:44:46;101284.97;;;16.66
78961;BMP280;68362;45.970;12.646;2023-06-04T04:45:49;101286.94;;;16.98
78961;BMP280;68362;45.970;12.646;2023-06-04T04:46:51;101280.63;;;16.82
78961;BMP280;68362;45.970;12.646;2023-06-04T04:47:54;101283.13;;;16.88
78961;BMP280;68362;45.970;12.646;2023-06-04T04:48:56;101277.13;;;16.98
78961;BMP280;68362;45.970;12.646;2023-06-04T04:49:58;101283.16;;;16.94
78961;BMP280;68362;45.970;12.646;2023-06-04T04:51:00;101279.66;;;16.88
78961;BMP280;68362;45.970;12.646;2023-06-04T04:52:03;101278.31;;;16.85
78961;BMP280;68362;45.970;12.646;2023-06-04T04:53:05;101277.13;;;16.98
78961;BMP280;68362;45.970;12.646;2023-06-04T04:54:07;101277.91;;;16.99
78961;BMP280;68362;45.970;12.646;2023-06-04T04:55:09;101280.69;;;16.87
78961;BMP280;68362;45.970;12.646;2023-06-04T04:56:12;101280.94;;;16.85
78961;BMP280;68362;45.970;12.646;2023-06-04T04:57:14;101280.75;;;16.70
78961;BMP280;68362;45.970;12.646;2023-06-04T04:58:16;101276.44;;;16.64
78961;BMP280;68362;45.970;12.646;2023-06-04T04:59:19;101276.59;;;16.74
78961;BMP280;68362;45.970;12.646;2023-06-04T05:00:21;101275.16;;;16.88
78961;BMP280;68362;45.970;12.646;2023-06-04T05:01:23;101276.56;;;16.96
78961;BMP280;68362;45.970;12.646;2023-06-04T05:02:27;101277.50;;;16.85
78961;BMP280;68362;45.970;12.646;2023-06-04T05:03:29;101277.97;;;16.82
78961;BMP280;68362;45.970;12.646;2023-06-04T05:04:32;101280.25;;;16.73
78961;BMP280;68362;45.970;12.646;2023-06-04T05:05:34;101280.91;;;16.80
78961;BMP280;68362;45.970;12.646;2023-06-04T05:06:37;101275.91;;;16.84
78961;BMP280;68362;45.970;12.646;2023-06-04T05:07:39;101276.25;;;16.92
78961;BMP280;68362;45.970;12.646;2023-06-04T05:08:42;101278.03;;;17.09
78961;BMP280;68362;45.970;12.646;2023-06-04T05:09:44;101273.88;;;17.18
78961;BMP280;68362;45.970;12.646;2023-06-04T05:10:46;101274.63;;;17.13
78961;BMP280;68362;45.970;12.646;2023-06-04T05:11:48;101271.75;;;16.93
78961;BMP280;68362;45.970;12.646;2023-06-04T05:12:55;101279.50;;;17.00
78961;BMP280;68362;45.970;12.646;2023-06-04T05:13:57;101281.44;;;17.04
78961;BMP280;68362;45.970;12.646;2023-06-04T05:14:59;101278.84;;;17.09
78961;BMP280;68362;45.970;12.646;2023-06-04T05:16:02;101279.22;;;17.23
78961;BMP280;68362;45.970;12.646;2023-06-04T05:17:09;101279.84;;;17.30
78961;BMP280;68362;45.970;12.646;2023-06-04T05:18:12;101278.78;;;17.31
78961;BMP280;68362;45.970;12.646;2023-06-04T05:19:17;101280.06;;;17.29
78961;BMP280;68362;45.970;12.646;2023-06-04T05:20:20;101282.03;;;17.38
78961;BMP280;68362;45.970;12.646;2023-06-04T05:21:23;101278.22;;;17.29
78961;BMP280;68362;45.970;12.646;2023-06-04T05:22:25;101277.25;;;17.35
78961;BMP280;68362;45.970;12.646;2023-06-04T05:23:30;101283.94;;;17.43
78961;BMP280;68362;45.970;12.646;2023-06-04T05:24:34;101289.94;;;17.33
78961;BMP280;68362;45.970;12.646;2023-06-04T05:25:36;101282.25;;;17.32
78961;BMP280;68362;45.970;12.646;2023-06-04T05:26:38;101283.72;;;17.44
78961;BMP280;68362;45.970;12.646;2023-06-04T05:27:41;101279.66;;;17.37
78961;BMP280;68362;45.970;12.646;2023-06-04T05:28:43;101282.13;;;17.22
78961;BMP280;68362;45.970;12.646;2023-06-04T05:29:45;101289.25;;;17.16
78961;BMP280;68362;45.970;12.646;2023-06-04T05:30:47;101283.50;;;17.24
78961;BMP280;68362;45.970;12.646;2023-06-04T05:31:50;101288.47;;;17.15
78961;BMP280;68362;45.970;12.646;2023-06-04T05:32:52;101281.34;;;17.21
78961;BMP280;68362;45.970;12.646;2023-06-04T05:33:55;101290.44;;;17.30
78961;BMP280;68362;45.970;12.646;2023-06-04T05:34:59;101285.72;;;17.32
78961;BMP280;68362;45.970;12.646;2023-06-04T05:36:01;101285.25;;;17.40
78961;BMP280;68362;45.970;12.646;2023-06-04T05:37:03;101288.00;;;17.51
78961;BMP280;68362;45.970;12.646;2023-06-04T05:38:06;101288.50;;;17.47
78961;BMP280;68362;45.970;12.646;2023-06-04T05:39:09;101288.38;;;17.37
78961;BMP280;68362;45.970;12.646;2023-06-04T05:40:12;101285.81;;;17.15
78961;BMP280;68362;45.970;12.646;2023-06-04T05:41:14;101291.03;;;17.37
78961;BMP280;68362;45.970;12.646;2023-06-04T05:42:16;101288.88;;;17.34
78961;BMP280;68362;45.970;12.646;2023-06-04T05:43:18;101289.81;;;17.45
78961;BMP280;68362;45.970;12.646;2023-06-04T05:44:20;101292.41;;;17.40
78961;BMP280;68362;45.970;12.646;2023-06-04T05:45:22;101291.59;;;17.39
78961;BMP280;68362;45.970;12.646;2023-06-04T05:46:25;101291.94;;;17.48
78961;BMP280;68362;45.970;12.646;2023-06-04T05:47:28;101296.97;;;17.44
78961;BMP280;68362;45.970;12.646;2023-06-04T05:48:33;101292.31;;;17.57
78961;BMP280;68362;45.970;12.646;2023-06-04T05:49:35;101294.84;;;17.73
78961;BMP280;68362;45.970;12.646;2023-06-04T05:50:37;101294.59;;;17.80
78961;BMP280;68362;45.970;12.646;2023-06-04T05:51:39;101298.84;;;17.81
78961;BMP280;68362;45.970;12.646;2023-06-04T05:52:41;101294.16;;;17.93
78961;BMP280;68362;45.970;12.646;2023-06-04T05:53:43;101286.69;;;17.85
78961;BMP280;68362;45.970;12.646;2023-06-04T05:54:45;101285.84;;;17.85